Terminal Aerodrome Forecast
Issued by NWS

Current Version | Previous Version | Graphics & Text | Print | Product List | Glossary On
Versions: 1 2 3 4 5 6 7 8 9 10 11 12 13 14 15 16 17 18 19 20 21 22 23 24 25 26 27 28
000
FTUS41 KILN 012338
TAFLCK
TAF
KLCK 012338Z 0200/0224 04007KT P6SM VCTS BKN040CB
      TEMPO 0201/0203 4SM -TSRA BR OVC025CB
     FM020300 11004KT P6SM VCTS BKN040CB
      TEMPO 0205/0208 4SM -SHRA BR OVC025
     FM020800 34006KT P6SM VCSH OVC025
     FM021300 32006KT P6SM OVC015=

USA.gov is the U.S. government's official web portal to all federal, state and local government web resources and services.